Aviation Digital Data Service (ADDS)

Output produced by METARs form (1414 UTC 10 July 2020)
found at http://www.aviationweather.gov/metar/data/
 
KTVR 101353Z AUTO 7SM FEW050 30/26 A3002 RMK AO2 SLP172 T03000256
KTVR 101253Z AUTO VRB03KT 6SM HZ CLR 28/26 A3001 RMK AO2 SLP169 T02830256
KTVR 101153Z AUTO 00000KT 4SM BR CLR 27/25 A3000 RMK AO2 SLP165 T02670250 10283 20267 51014
KTVR 101053Z AUTO 00000KT 6SM BR FEW046 27/25 A2999 RMK AO2 SLP162 T02670250
KTVR 100953Z AUTO 00000KT 6SM BR SCT046 27/25 A2997 RMK AO2 SLP156 T02720250
KTVR 100853Z AUTO 00000KT 7SM FEW046 27/25 A2996 RMK AO2 SLP151 T02720250 53007
KTVR 100753Z AUTO 00000KT 7SM CLR 28/25 A2995 RMK AO2 SLP147 T02780250
KTVR 100653Z AUTO 00000KT 8SM CLR 28/25 A2994 RMK AO2 SLP145 T02830250
KTVR 100553Z AUTO 00000KT 5SM BR CLR 27/25 A2994 RMK AO2 SLP144 T02670250 10322 20267 403440256 51012
KTVR 100453Z AUTO 00000KT 6SM BR CLR 27/25 A2993 RMK AO2 SLP142 T02670250
KTVR 100353Z AUTO 00000KT 8SM CLR 27/25 A2992 RMK AO2 SLP137 T02720250
KTVR 100253Z AUTO 00000KT 10SM CLR 28/26 A2991 RMK AO2 SLP132 T02780256 53003
KTVR 100153Z AUTO 00000KT 10SM CLR 28/26 A2990 RMK AO2 SLP130 T02780256
KTVR 100053Z AUTO 00000KT 10SM CLR 30/26 A2990 RMK AO2 SLP131 T03000256
KTVR 092353Z AUTO 00000KT 10SM CLR 32/25 A2990 RMK AO2 SLP129 T03170250 10344 20317 58010
KTVR 092253Z AUTO 00000KT 10SM CLR 33/26 A2991 RMK AO2 SLP134 T03280256
KTVR 092153Z AUTO VRB03KT 10SM CLR 34/25 A2993 RMK AO2 SLP139 T03440250
KTVR 092053Z AUTO VRB04KT 10SM FEW041 33/25 A2993 RMK AO2 SLP139 T03330250 58009
KTVR 091953Z AUTO VRB03KT 10SM FEW038 34/26 A2994 RMK AO2 SLP143 T03390261
KTVR 091853Z AUTO VRB03KT 9SM FEW032 SCT044 32/26 A2995 RMK AO2 SLP146 T03220256
KTVR 091753Z AUTO VRB03KT 9SM FEW030 SCT036 33/25 A2996 RMK AO2 SLP149 T03280250 10328 20261 51000
KTVR 091653Z AUTO VRB03KT 9SM FEW026 32/26 A2995 RMK AO2 SLP148 T03170256
KTVR 091553Z AUTO 00000KT 8SM FEW022 31/26 A2996 RMK AO2 SLP151 T03110256
KTVR 091453Z AUTO VRB05KT 7SM FEW016 29/24 A2995 RMK AO2 SLP149 T02940244 50000
KTVR 091434Z AUTO 00000KT 7SM SCT015 29/25 A2995 RMK AO2 T02940250
KTVR 091422Z AUTO 7SM BKN015 29/25 A2995 RMK AO2 T02890250
KTVR 091411Z AUTO VRB03KT 6SM HZ BKN014 29/25 A2995 RMK AO2 T02890250
KTVR 091353Z AUTO VRB04KT 6SM HZ BKN015 28/25 A2995 RMK AO2 SLP149 T02830250
KTVR 091337Z AUTO 00000KT 6SM HZ BKN013 28/25 A2996 RMK AO2 T02830250
KTVR 091301Z AUTO 00000KT 5SM HZ FEW009 28/25 A2996 RMK AO2 T02780250
KTVR 091253Z AUTO VRB04KT 5SM BR SCT010 27/25 A2996 RMK AO2 SLP149 T02720250
KTVR 091249Z AUTO VRB03KT 5SM BR SCT010 27/25 A2995 RMK AO2
KTVR 091233Z AUTO VRB03KT 4SM BR BKN010 27/25 A2995 RMK AO2 T02670250
KTVR 091153Z AUTO VRB03KT 4SM BR BKN008 26/24 A2994 RMK AO2 SLP143 70040 T02610244 10261 20256 53009
KTVR 091111Z AUTO 00000KT 4SM BR BKN009 26/24 A2993 RMK AO2 CIG 007V012 T02610244
KTVR 091053Z AUTO 00000KT 5SM BR FEW008 26/24 A2993 RMK AO2 SLP140 T02610244
KTVR 091028Z AUTO 00000KT 5SM BR FEW008 26/24 A2992 RMK AO2 T02610244
KTVR 090953Z AUTO 22003KT 6SM BR CLR 26/24 A2992 RMK AO2 SLP136 T02610244
KTVR 090853Z AUTO VRB03KT 6SM BR CLR 26/24 A2991 RMK AO2 SLP134 T02610244 55004
KTVR 090753Z AUTO 00000KT 6SM BR CLR 26/24 A2990 RMK AO2 SLP132 T02560239
KTVR 090653Z AUTO 17003KT 6SM BR FEW005 26/24 A2991 RMK AO2 SLP133 T02560239
KTVR 090635Z AUTO 14004KT 6SM BR FEW005 26/24 A2991 RMK AO2 T02560239
KTVR 090553Z AUTO 13003KT 7SM FEW049 25/24 A2992 RMK AO2 SLP139 T02500239 10283 20250 402830244 50002
KTVR 090453Z AUTO 00000KT 7SM CLR 26/24 A2993 RMK AO2 SLP140 T02560239
KTVR 090353Z AUTO 16003KT 9SM CLR 26/24 A2993 RMK AO2 SLP139 T02560239
KTVR 090253Z AUTO 00000KT 10SM CLR 26/24 A2992 RMK AO2 SLP137 T02610239 53007
KTVR 090153Z AUTO 00000KT 10SM CLR 26/24 A2991 RMK AO2 SLP132 T02610239
KTVR 082353Z AUTO 17006KT 10SM CLR 28/24 A2990 RMK AO2 SLP130 60026 T02830244 10283 20256 58009
KTVR 082253Z AUTO 15005KT 10SM CLR 28/25 A2991 RMK AO2 LTG DSNT N SLP134 T02830250
KTVR 082153Z AUTO 15008KT 10SM FEW011 28/25 A2994 RMK AO2 SLP143 T02830250
KTVR 082053Z AUTO 00000KT 10SM CLR 27/24 A2993 RMK AO2 RAE00 SLP139 P0000 60026 T02720244 58014
KTVR 081953Z AUTO 00000KT 10SM -RA BKN030 26/24 A2994 RMK AO2 LTG DSNT SE SLP144 P0002 T02560239
KTVR 081928Z AUTO 00000KT 4SM -RA BR SCT017 BKN032 BKN070 26/24 A2996 RMK AO2 LTG DSNT E AND SE P0002 T02560239
KTVR 081917Z AUTO 00000KT 8SM -RA FEW008 BKN017 BKN070 26/24 A2997 RMK AO2 LTG DSNT E-S P0001 T02560239
KTVR 081904Z AUTO 16006KT 6SM VCTS -RA BR FEW008 BKN017 OVC028 26/24 A2997 RMK AO2 LTG DSNT E-SW P0001 T02560239
KTVR 081853Z AUTO 14003KT 4SM VCTS -RA BR BKN013 BKN021 OVC100 26/24 A2997 RMK AO2 LTG DSNT ALQDS RAE16B28 TSB13E33 SLP154 P0024 T02610239
KTVR 081848Z AUTO 14004KT 2 1/2SM VCTS RA BR BKN013 OVC021 26/24 A2997 RMK AO2 VIS 1 1/4V4 LTG DSNT ALQDS RAE16B28 TSB13E33 P0024
KTVR 081843Z AUTO VRB03KT 1SM VCTS RA BR BKN016 BKN023 OVC035 26/24 A2998 RMK AO2 LTG DSNT ALQDS RAE16B28 TSB13E33 P0023 T02560239
KTVR 081833Z AUTO 16008KT 1/2SM VCTS +RA FG BKN014 OVC038 26/24 A2998 RMK AO2 LTG DSNT SE AND SW RAE16B28 TSB13E33 P0018 T02610244
KTVR 081830Z AUTO 19006KT 1 1/2SM -TSRA BR BKN013 OVC038 26/24 A2998 RMK AO2 LTG DSNT SE-W RAE16B28 TSB13 P0006 T02610244
KTVR 081825Z AUTO 18009KT 10SM TS SCT013 BKN021 OVC038 27/24 A2998 RMK AO2 LTG DSNT SE-W RAE16 TSB13 P0000 T02670244
KTVR 081813Z AUTO 11003KT 10SM -TSRA FEW016 SCT024 OVC036 27/24 A2998 RMK AO2 LTG DSNT ALQDS TSB13 P0000 T02720239
KTVR 081807Z AUTO 07004KT 10SM VCTS -RA FEW018 BKN028 OVC036 27/24 A2997 RMK AO2 LTG DSNT ALQDS P0000 T02670239
KTVR 081753Z AUTO 09004KT 7SM -RA SCT013 BKN030 OVC040 27/24 A2997 RMK AO2 LTG DSNT SE-W RAB42 SLP154 P0000 60014 T02670239 10283 20256 55005
KTVR 081751Z AUTO 08006KT 7SM -RA SCT013 BKN030 OVC040 27/24 A2997 RMK AO2 LTG DSNT SE-W RAB42 P0000
KTVR 081653Z AUTO 07006KT 10SM BKN010 BKN016 OVC021 26/23 A2999 RMK AO2 LTG DSNT E-SW RAB23E41 TSE22 CIG 008V012 SLP159 P0000 T02610233
KTVR 081628Z AUTO 6SM VCTS -RA SCT010 BKN014 OVC018 27/24 A2999 RMK AO2 LTG DSNT E AND SE RAB23 TSE22 P0000 T02720244
KTVR 081601Z AUTO 00000KT 4SM TS BR FEW008 BKN014 BKN020 28/26 A2998 RMK AO2 LTG DSNT NE-SE T02780261
KTVR 081553Z AUTO 00000KT 5SM TS BR FEW008 SCT012 BKN017 28/26 A2998 RMK AO2 LTG DSNT NE-SE RAE50 TSB43 SLP159 P0011 T02780261
KTVR 081548Z AUTO 00000KT 5SM -TSRA BR FEW008 SCT012 BKN019 28/26 A2998 RMK AO2 LTG DSNT NE AND E TSB43 P0011
KTVR 081543Z AUTO VRB05KT 4SM -TSRA BR BKN010 OVC019 27/26 A2998 RMK AO2 LTG DSNT NE AND E TSB43 P0011 T02720256
KTVR 081520Z AUTO 00000KT 3SM VCTS RA BR BKN010 BKN017 BKN026 27/26 A2999 RMK AO2 LTG DSNT NW-E P0010 T02720256
KTVR 081507Z AUTO 00000KT 3SM -RA BR SCT010 BKN017 27/25 A2999 RMK AO2 LTG DSNT N AND NE P0010 T02720250
KTVR 081500Z AUTO 22003KT 1/4SM +RA FG SCT010 BKN015 BKN020 27/26 A2999 RMK AO2 LTG DSNT N AND NE P0010 T02720256
KTVR 081453Z AUTO 00000KT 2SM -RA BR SCT010 BKN018 BKN028 28/26 A3000 RMK AO2 LTG DSNT NW-NE RAB46 SLP163 P0003 60003 T02780256 53009
KTVR 081400Z AUTO VRB03KT 4SM BR OVC011 27/25 A2999 RMK AO2 LTG DSNT N AND NW T02720250
KTVR 081353Z AUTO 00000KT 4SM BR OVC009 27/25 A2999 RMK AO2 LTG DSNT N CIG 008V014 SLP161 T02720250
KTVR 081253Z AUTO VRB04KT 5SM BR OVC008 27/25 A2997 RMK AO2 SLP153 T02670250
KTVR 081219Z AUTO 18003KT 5SM BR OVC009 26/24 A2997 RMK AO2 T02610244
KTVR 081153Z AUTO 18004KT 5SM BR OVC011 26/24 A2997 RMK AO2 SLP154 60000 70018 T02560239 10256 20244 52004
KTVR 081141Z AUTO 18005KT 5SM BR BKN012 26/24 A2997 RMK AO2 T02560239 $
KTVR 081053Z AUTO 17003KT 7SM FEW110 25/23 A2997 RMK AO2 RAE08 SLP153 P0000 T02500233 $
KTVR 080953Z AUTO 17003KT 9SM -RA FEW120 24/23 A2996 RMK AO2 RAB53 SLP152 P0000 T02440228 $
KTVR 080853Z AUTO 00000KT 10SM CLR 24/23 A2996 RMK AO2 SLP150 T02440228 56008 $
KTVR 080753Z AUTO 17003KT 10SM CLR 24/23 A2996 RMK AO2 SLP152 T02440228 $
KTVR 080653Z AUTO 18003KT 10SM CLR 25/23 A2998 RMK AO2 SLP156 T02500228 $
KTVR 080553Z AUTO 17003KT 10SM CLR 25/23 A2998 RMK AO2 SLP158 60003 T02500233 10256 20244 403280239 50002 $
KTVR 080453Z AUTO 00000KT 10SM CLR 25/23 A2999 RMK AO2 SLP160 T02500233 $
KTVR 080353Z AUTO 17003KT 10SM CLR 25/23 A2998 RMK AO2 SLP157 T02500233 $
KTVR 080253Z AUTO 00000KT 10SM CLR 24/23 A2998 RMK AO2 SLP156 60003 T02440228 53001 $
KTVR 080153Z AUTO 00000KT 10SM CLR 24/23 A2996 RMK AO2 SLP152 T02440228 $
KTVR 080053Z AUTO 00000KT 10SM CLR 25/23 A2997 RMK AO2 RAE39 SLP154 P0003 T02500228 $
KTVR 072353Z AUTO 00000KT 4SM -RA BR SCT049 BKN075 OVC120 25/23 A2997 RMK AO2 RAB05 SLP155 P0015 60015 T02500233 10328 20244 55005 $
KTVR 072343Z AUTO 00000KT 3SM -RA BR SCT038 BKN100 BKN120 25/23 A2997 RMK AO2 RAB05 P0015 T02500233 $
KTVR 072319Z AUTO 29004KT 3SM VCTS -RA BR SCT029 BKN075 25/23 A2998 RMK AO2 RAB05 P0014 T02500228 $
KTVR 072316Z AUTO 30004KT 1SM VCTS RA SCT029 BKN075 BKN090 25/22 A2998 RMK AO2 RAB05 P0014 T02500222 $
KTVR 072312Z AUTO 00000KT 1/4SM RA SCT030 BKN075 BKN090 25/22 A2998 RMK AO2 RAB05 P0014 T02500217 $
KTVR 072253Z AUTO 00000KT 10SM CLR 30/23 A2996 RMK AO2 SLP152 T03000233
KTVR 072153Z AUTO VRB04KT 10SM CLR 31/23 A2997 RMK AO2 SLP156 T03110233
KTVR 072053Z AUTO 00000KT 10SM FEW027 31/23 A2999 RMK AO2 SLP160 T03060233 55014
KTVR 071953Z AUTO 29003KT 10SM CLR 32/24 A2999 RMK AO2 SLP160 T03170239
KTVR 071853Z AUTO 00000KT 10SM FEW030 32/23 A3000 RMK AO2 SLP165 T03170228
KTVR 071753Z AUTO VRB03KT 10SM FEW024 31/24 A3003 RMK AO2 SLP174 60000 T03110239 10311 20250 55004
KTVR 071653Z AUTO VRB04KT 10SM FEW020 30/23 A3003 RMK AO2 SLP173 T03000233
KTVR 071553Z AUTO VRB05KT 10SM FEW014 29/24 A3003 RMK AO2 RAE39 SLP173 P0000 T02890239
KTVR 071523Z AUTO VRB03KT 7SM -RA SCT011 BKN032 28/25 A3004 RMK AO2 P0000 T02780250
KTVR 071453Z AUTO 00000KT 6SM -RA OVC011 27/24 A3004 RMK AO2 RAB40 SLP178 P0000 60000 T02720244 53019